sensor_id;sensor_type;location;lat;lon;timestamp;P1;durP1;ratioP1;P2;durP2;ratioP2
37559;SDS011;23398;50.928;7.084;2023-05-07T00:00:11;2.10;;;1.58;;
37559;SDS011;23398;50.928;7.084;2023-05-07T00:02:40;3.95;;;2.03;;
37559;SDS011;23398;50.928;7.084;2023-05-07T00:05:06;2.13;;;1.85;;
37559;SDS011;23398;50.928;7.084;2023-05-07T00:07:32;2.33;;;1.70;;
37559;SDS011;23398;50.928;7.084;2023-05-07T00:09:57;4.53;;;2.17;;
37559;SDS011;23398;50.928;7.084;2023-05-07T00:12:23;2.08;;;1.65;;
37559;SDS011;23398;50.928;7.084;2023-05-07T00:14:48;1.70;;;1.60;;
37559;SDS011;23398;50.928;7.084;2023-05-07T00:17:14;2.30;;;1.65;;
37559;SDS011;23398;50.928;7.084;2023-05-07T00:19:40;2.28;;;1.70;;
37559;SDS011;23398;50.928;7.084;2023-05-07T00:22:05;1.70;;;1.50;;
37559;SDS011;23398;50.928;7.084;2023-05-07T00:24:31;1.90;;;1.60;;
37559;SDS011;23398;50.928;7.084;2023-05-07T00:26:57;2.83;;;1.65;;
37559;SDS011;23398;50.928;7.084;2023-05-07T00:29:23;1.92;;;1.50;;
37559;SDS011;23398;50.928;7.084;2023-05-07T00:31:49;1.75;;;1.48;;
37559;SDS011;23398;50.928;7.084;2023-05-07T00:34:15;1.88;;;1.50;;
37559;SDS011;23398;50.928;7.084;2023-05-07T00:36:41;2.58;;;1.40;;
37559;SDS011;23398;50.928;7.084;2023-05-07T00:39:06;1.58;;;1.48;;
37559;SDS011;23398;50.928;7.084;2023-05-07T00:41:32;1.50;;;1.40;;
37559;SDS011;23398;50.928;7.084;2023-05-07T00:43:57;3.55;;;1.58;;
37559;SDS011;23398;50.928;7.084;2023-05-07T00:46:23;1.95;;;1.40;;
37559;SDS011;23398;50.928;7.084;2023-05-07T00:48:52;1.70;;;1.50;;
37559;SDS011;23398;50.928;7.084;2023-05-07T00:51:18;1.52;;;1.40;;
37559;SDS011;23398;50.928;7.084;2023-05-07T00:53:44;1.95;;;1.42;;
37559;SDS011;23398;50.928;7.084;2023-05-07T00:56:11;2.03;;;1.40;;
37559;SDS011;23398;50.928;7.084;2023-05-07T00:58:37;2.53;;;1.33;;
37559;SDS011;23398;50.928;7.084;2023-05-07T01:01:03;1.85;;;1.60;;
37559;SDS011;23398;50.928;7.084;2023-05-07T01:03:29;1.73;;;1.58;;
37559;SDS011;23398;50.928;7.084;2023-05-07T01:05:54;1.90;;;1.70;;
37559;SDS011;23398;50.928;7.084;2023-05-07T01:08:23;2.20;;;1.40;;
37559;SDS011;23398;50.928;7.084;2023-05-07T01:10:51;1.60;;;1.50;;
37559;SDS011;23398;50.928;7.084;2023-05-07T01:13:19;2.30;;;1.75;;
37559;SDS011;23398;50.928;7.084;2023-05-07T01:15:45;2.10;;;1.50;;
37559;SDS011;23398;50.928;7.084;2023-05-07T01:18:11;2.58;;;1.55;;
37559;SDS011;23398;50.928;7.084;2023-05-07T01:20:36;2.00;;;1.52;;
37559;SDS011;23398;50.928;7.084;2023-05-07T01:23:02;1.90;;;1.70;;
37559;SDS011;23398;50.928;7.084;2023-05-07T01:25:28;2.55;;;1.50;;
37559;SDS011;23398;50.928;7.084;2023-05-07T01:27:55;3.40;;;1.50;;
37559;SDS011;23398;50.928;7.084;2023-05-07T01:30:21;1.63;;;1.52;;
37559;SDS011;23398;50.928;7.084;2023-05-07T01:32:57;1.73;;;1.30;;
37559;SDS011;23398;50.928;7.084;2023-05-07T01:35:29;1.58;;;1.40;;
37559;SDS011;23398;50.928;7.084;2023-05-07T01:37:59;1.50;;;1.40;;
37559;SDS011;23398;50.928;7.084;2023-05-07T01:40:26;3.20;;;1.30;;
37559;SDS011;23398;50.928;7.084;2023-05-07T01:42:52;1.85;;;1.55;;
37559;SDS011;23398;50.928;7.084;2023-05-07T01:45:19;2.03;;;1.45;;
37559;SDS011;23398;50.928;7.084;2023-05-07T01:47:45;1.65;;;1.30;;
37559;SDS011;23398;50.928;7.084;2023-05-07T01:50:11;1.92;;;1.52;;
37559;SDS011;23398;50.928;7.084;2023-05-07T01:52:37;1.88;;;1.42;;
37559;SDS011;23398;50.928;7.084;2023-05-07T01:55:03;1.60;;;1.40;;
37559;SDS011;23398;50.928;7.084;2023-05-07T01:57:30;1.48;;;1.33;;
37559;SDS011;23398;50.928;7.084;2023-05-07T01:59:56;1.55;;;1.30;;
37559;SDS011;23398;50.928;7.084;2023-05-07T02:02:21;2.65;;;1.30;;
37559;SDS011;23398;50.928;7.084;2023-05-07T02:04:47;2.33;;;1.40;;
37559;SDS011;23398;50.928;7.084;2023-05-07T02:07:12;4.22;;;1.40;;
37559;SDS011;23398;50.928;7.084;2023-05-07T02:09:38;1.98;;;1.48;;
37559;SDS011;23398;50.928;7.084;2023-05-07T02:12:03;1.40;;;1.20;;
37559;SDS011;23398;50.928;7.084;2023-05-07T02:14:29;2.67;;;1.50;;
37559;SDS011;23398;50.928;7.084;2023-05-07T02:16:55;2.35;;;1.48;;
37559;SDS011;23398;50.928;7.084;2023-05-07T02:19:20;2.72;;;1.40;;
37559;SDS011;23398;50.928;7.084;2023-05-07T02:21:46;2.22;;;1.80;;
37559;SDS011;23398;50.928;7.084;2023-05-07T02:24:12;1.92;;;1.40;;
37559;SDS011;23398;50.928;7.084;2023-05-07T02:26:39;2.45;;;1.25;;
37559;SDS011;23398;50.928;7.084;2023-05-07T02:29:05;2.35;;;1.50;;
37559;SDS011;23398;50.928;7.084;2023-05-07T02:31:30;1.90;;;1.40;;
37559;SDS011;23398;50.928;7.084;2023-05-07T02:33:56;1.55;;;1.45;;
37559;SDS011;23398;50.928;7.084;2023-05-07T02:36:21;2.60;;;1.40;;
37559;SDS011;23398;50.928;7.084;2023-05-07T02:38:47;1.40;;;1.30;;
37559;SDS011;23398;50.928;7.084;2023-05-07T02:41:12;2.45;;;1.20;;
37559;SDS011;23398;50.928;7.084;2023-05-07T02:43:38;1.30;;;1.20;;
37559;SDS011;23398;50.928;7.084;2023-05-07T02:46:04;2.63;;;1.35;;
37559;SDS011;23398;50.928;7.084;2023-05-07T02:48:31;2.33;;;1.30;;
37559;SDS011;23398;50.928;7.084;2023-05-07T02:50:58;1.58;;;1.10;;
37559;SDS011;23398;50.928;7.084;2023-05-07T02:53:24;1.98;;;1.38;;
37559;SDS011;23398;50.928;7.084;2023-05-07T02:55:55;4.00;;;1.48;;
37559;SDS011;23398;50.928;7.084;2023-05-07T02:58:24;1.50;;;1.30;;
37559;SDS011;23398;50.928;7.084;2023-05-07T03:00:51;1.50;;;1.40;;
37559;SDS011;23398;50.928;7.084;2023-05-07T03:03:17;1.73;;;1.40;;
37559;SDS011;23398;50.928;7.084;2023-05-07T03:05:42;1.30;;;1.20;;
37559;SDS011;23398;50.928;7.084;2023-05-07T03:08:08;2.25;;;1.20;;
37559;SDS011;23398;50.928;7.084;2023-05-07T03:10:35;1.75;;;1.40;;
37559;SDS011;23398;50.928;7.084;2023-05-07T03:13:01;1.30;;;1.20;;
37559;SDS011;23398;50.928;7.084;2023-05-07T03:15:27;1.38;;;1.25;;
37559;SDS011;23398;50.928;7.084;2023-05-07T03:17:52;1.38;;;1.27;;
37559;SDS011;23398;50.928;7.084;2023-05-07T03:20:18;1.05;;;1.00;;
37559;SDS011;23398;50.928;7.084;2023-05-07T03:22:44;1.60;;;1.30;;
37559;SDS011;23398;50.928;7.084;2023-05-07T03:25:09;1.48;;;1.30;;
37559;SDS011;23398;50.928;7.084;2023-05-07T03:27:35;1.92;;;1.40;;
37559;SDS011;23398;50.928;7.084;2023-05-07T03:30:01;1.40;;;1.30;;
37559;SDS011;23398;50.928;7.084;2023-05-07T03:32:27;2.15;;;1.45;;
37559;SDS011;23398;50.928;7.084;2023-05-07T03:34:52;1.38;;;1.27;;
37559;SDS011;23398;50.928;7.084;2023-05-07T03:37:18;1.30;;;1.20;;
37559;SDS011;23398;50.928;7.084;2023-05-07T03:39:44;2.00;;;1.30;;
37559;SDS011;23398;50.928;7.084;2023-05-07T03:42:09;1.60;;;1.40;;
37559;SDS011;23398;50.928;7.084;2023-05-07T03:44:35;1.73;;;1.48;;
37559;SDS011;23398;50.928;7.084;2023-05-07T03:47:01;1.70;;;1.10;;
37559;SDS011;23398;50.928;7.084;2023-05-07T03:49:27;1.40;;;1.30;;
37559;SDS011;23398;50.928;7.084;2023-05-07T03:51:53;1.75;;;1.30;;
37559;SDS011;23398;50.928;7.084;2023-05-07T03:54:18;1.95;;;1.25;;
37559;SDS011;23398;50.928;7.084;2023-05-07T03:56:44;1.77;;;1.50;;
37559;SDS011;23398;50.928;7.084;2023-05-07T03:59:10;1.73;;;1.20;;
37559;SDS011;23398;50.928;7.084;2023-05-07T04:01:36;2.65;;;1.40;;
37559;SDS011;23398;50.928;7.084;2023-05-07T04:04:02;1.30;;;1.20;;
37559;SDS011;23398;50.928;7.084;2023-05-07T04:06:28;1.52;;;1.40;;
37559;SDS011;23398;50.928;7.084;2023-05-07T04:08:53;1.92;;;1.50;;
37559;SDS011;23398;50.928;7.084;2023-05-07T04:11:19;3.08;;;1.48;;
37559;SDS011;23398;50.928;7.084;2023-05-07T04:13:45;1.50;;;1.40;;
37559;SDS011;23398;50.928;7.084;2023-05-07T04:16:10;1.23;;;1.13;;
37559;SDS011;23398;50.928;7.084;2023-05-07T04:18:36;1.50;;;1.25;;
37559;SDS011;23398;50.928;7.084;2023-05-07T04:21:01;1.98;;;1.50;;
37559;SDS011;23398;50.928;7.084;2023-05-07T04:23:27;1.35;;;1.25;;
37559;SDS011;23398;50.928;7.084;2023-05-07T04:25:53;1.85;;;1.23;;
37559;SDS011;23398;50.928;7.084;2023-05-07T04:28:19;1.30;;;1.20;;
37559;SDS011;23398;50.928;7.084;2023-05-07T04:30:45;1.70;;;1.23;;
37559;SDS011;23398;50.928;7.084;2023-05-07T04:33:11;3.65;;;1.33;;
37559;SDS011;23398;50.928;7.084;2023-05-07T04:35:37;2.33;;;1.17;;
37559;SDS011;23398;50.928;7.084;2023-05-07T04:38:02;1.40;;;1.30;;
37559;SDS011;23398;50.928;7.084;2023-05-07T04:40:28;1.38;;;1.23;;
37559;SDS011;23398;50.928;7.084;2023-05-07T04:42:54;1.38;;;1.27;;
37559;SDS011;23398;50.928;7.084;2023-05-07T04:45:19;1.40;;;1.27;;
37559;SDS011;23398;50.928;7.084;2023-05-07T04:47:45;3.70;;;1.50;;
37559;SDS011;23398;50.928;7.084;2023-05-07T04:50:10;1.90;;;1.38;;
37559;SDS011;23398;50.928;7.084;2023-05-07T04:52:36;2.17;;;1.40;;
37559;SDS011;23398;50.928;7.084;2023-05-07T04:55:02;1.30;;;1.20;;
37559;SDS011;23398;50.928;7.084;2023-05-07T04:57:28;1.90;;;1.35;;
37559;SDS011;23398;50.928;7.084;2023-05-07T04:59:53;1.40;;;1.30;;
37559;SDS011;23398;50.928;7.084;2023-05-07T05:02:19;1.30;;;1.20;;
37559;SDS011;23398;50.928;7.084;2023-05-07T05:04:45;1.20;;;1.10;;
37559;SDS011;23398;50.928;7.084;2023-05-07T05:07:11;1.77;;;1.20;;
37559;SDS011;23398;50.928;7.084;2023-05-07T05:09:36;1.27;;;1.17;;
37559;SDS011;23398;50.928;7.084;2023-05-07T05:12:02;3.08;;;1.17;;
37559;SDS011;23398;50.928;7.084;2023-05-07T05:14:28;1.70;;;1.20;;
37559;SDS011;23398;50.928;7.084;2023-05-07T05:16:54;3.67;;;1.30;;
37559;SDS011;23398;50.928;7.084;2023-05-07T05:19:20;1.60;;;1.20;;
37559;SDS011;23398;50.928;7.084;2023-05-07T05:21:45;1.30;;;1.20;;
37559;SDS011;23398;50.928;7.084;2023-05-07T05:24:11;1.90;;;1.33;;
37559;SDS011;23398;50.928;7.084;2023-05-07T05:26:36;1.23;;;1.13;;
37559;SDS011;23398;50.928;7.084;2023-05-07T05:29:02;1.92;;;1.63;;
37559;SDS011;23398;50.928;7.084;2023-05-07T05:31:27;1.75;;;1.23;;
37559;SDS011;23398;50.928;7.084;2023-05-07T05:33:53;2.70;;;1.30;;
37559;SDS011;23398;50.928;7.084;2023-05-07T05:36:18;1.55;;;1.30;;
37559;SDS011;23398;50.928;7.084;2023-05-07T05:38:44;1.40;;;1.30;;
37559;SDS011;23398;50.928;7.084;2023-05-07T05:41:10;1.92;;;1.40;;
37559;SDS011;23398;50.928;7.084;2023-05-07T05:43:35;1.35;;;1.25;;
37559;SDS011;23398;50.928;7.084;2023-05-07T05:46:01;1.67;;;1.45;;
37559;SDS011;23398;50.928;7.084;2023-05-07T05:48:28;2.10;;;1.40;;
37559;SDS011;23398;50.928;7.084;2023-05-07T05:50:54;1.35;;;1.25;;
37559;SDS011;23398;50.928;7.084;2023-05-07T05:53:20;2.22;;;1.40;;
37559;SDS011;23398;50.928;7.084;2023-05-07T05:55:45;1.50;;;1.40;;
37559;SDS011;23398;50.928;7.084;2023-05-07T05:58:11;1.33;;;1.23;;
37559;SDS011;23398;50.928;7.084;2023-05-07T06:00:37;1.38;;;1.27;;
37559;SDS011;23398;50.928;7.084;2023-05-07T06:03:02;2.50;;;1.10;;
37559;SDS011;23398;50.928;7.084;2023-05-07T06:05:28;1.45;;;1.20;;
37559;SDS011;23398;50.928;7.084;2023-05-07T06:07:53;3.10;;;1.30;;
37559;SDS011;23398;50.928;7.084;2023-05-07T06:10:19;1.98;;;1.45;;
37559;SDS011;23398;50.928;7.084;2023-05-07T06:12:44;2.85;;;1.25;;
37559;SDS011;23398;50.928;7.084;2023-05-07T06:15:10;1.98;;;1.40;;
37559;SDS011;23398;50.928;7.084;2023-05-07T06:17:36;1.92;;;1.38;;
37559;SDS011;23398;50.928;7.084;2023-05-07T06:20:01;2.63;;;1.33;;
37559;SDS011;23398;50.928;7.084;2023-05-07T06:22:27;2.40;;;1.20;;
37559;SDS011;23398;50.928;7.084;2023-05-07T06:24:52;2.17;;;1.30;;
37559;SDS011;23398;50.928;7.084;2023-05-07T06:27:18;1.52;;;1.33;;
37559;SDS011;23398;50.928;7.084;2023-05-07T06:29:43;1.90;;;1.30;;
37559;SDS011;23398;50.928;7.084;2023-05-07T06:32:09;1.40;;;1.30;;
37559;SDS011;23398;50.928;7.084;2023-05-07T06:34:36;1.40;;;1.30;;
37559;SDS011;23398;50.928;7.084;2023-05-07T06:37:02;2.70;;;1.60;;
37559;SDS011;23398;50.928;7.084;2023-05-07T06:39:28;1.38;;;1.27;;
37559;SDS011;23398;50.928;7.084;2023-05-07T06:41:53;1.27;;;1.17;;
37559;SDS011;23398;50.928;7.084;2023-05-07T06:44:19;1.38;;;1.20;;
37559;SDS011;23398;50.928;7.084;2023-05-07T06:46:45;1.50;;;1.13;;
37559;SDS011;23398;50.928;7.084;2023-05-07T06:49:11;2.47;;;1.38;;
37559;SDS011;23398;50.928;7.084;2023-05-07T06:51:37;1.40;;;1.30;;
37559;SDS011;23398;50.928;7.084;2023-05-07T06:54:03;1.40;;;1.30;;
37559;SDS011;23398;50.928;7.084;2023-05-07T06:56:29;2.05;;;1.42;;
37559;SDS011;23398;50.928;7.084;2023-05-07T06:58:59;1.95;;;1.40;;
37559;SDS011;23398;50.928;7.084;2023-05-07T07:01:25;3.00;;;1.40;;
37559;SDS011;23398;50.928;7.084;2023-05-07T07:03:51;1.58;;;1.40;;
37559;SDS011;23398;50.928;7.084;2023-05-07T07:06:16;1.65;;;1.55;;
37559;SDS011;23398;50.928;7.084;2023-05-07T07:08:42;2.38;;;1.70;;
37559;SDS011;23398;50.928;7.084;2023-05-07T07:11:08;1.73;;;1.50;;
37559;SDS011;23398;50.928;7.084;2023-05-07T07:13:35;2.60;;;1.40;;
37559;SDS011;23398;50.928;7.084;2023-05-07T07:16:00;2.00;;;1.38;;
37559;SDS011;23398;50.928;7.084;2023-05-07T07:18:26;1.35;;;1.25;;
37559;SDS011;23398;50.928;7.084;2023-05-07T07:20:52;2.20;;;1.30;;
37559;SDS011;23398;50.928;7.084;2023-05-07T07:23:18;1.40;;;1.30;;
37559;SDS011;23398;50.928;7.084;2023-05-07T07:25:44;1.20;;;1.10;;
37559;SDS011;23398;50.928;7.084;2023-05-07T07:28:10;1.70;;;1.10;;
37559;SDS011;23398;50.928;7.084;2023-05-07T07:30:36;1.20;;;1.10;;
37559;SDS011;23398;50.928;7.084;2023-05-07T07:33:02;1.20;;;1.10;;
37559;SDS011;23398;50.928;7.084;2023-05-07T07:35:31;1.40;;;1.10;;
37559;SDS011;23398;50.928;7.084;2023-05-07T07:37:57;1.95;;;1.40;;
37559;SDS011;23398;50.928;7.084;2023-05-07T07:40:23;1.10;;;1.00;;
37559;SDS011;23398;50.928;7.084;2023-05-07T07:42:50;1.25;;;1.15;;
37559;SDS011;23398;50.928;7.084;2023-05-07T07:45:16;1.50;;;1.20;;
37559;SDS011;23398;50.928;7.084;2023-05-07T07:47:41;1.17;;;1.08;;
37559;SDS011;23398;50.928;7.084;2023-05-07T07:50:07;1.75;;;1.15;;
37559;SDS011;23398;50.928;7.084;2023-05-07T07:52:33;2.30;;;1.00;;
37559;SDS011;23398;50.928;7.084;2023-05-07T07:54:59;1.70;;;1.20;;
37559;SDS011;23398;50.928;7.084;2023-05-07T07:57:25;1.40;;;1.10;;
37559;SDS011;23398;50.928;7.084;2023-05-07T07:59:51;1.27;;;1.10;;
37559;SDS011;23398;50.928;7.084;2023-05-07T08:02:16;2.53;;;1.58;;
37559;SDS011;23398;50.928;7.084;2023-05-07T08:04:43;2.58;;;1.20;;
37559;SDS011;23398;50.928;7.084;2023-05-07T08:07:09;1.63;;;1.10;;
37559;SDS011;23398;50.928;7.084;2023-05-07T08:09:36;1.30;;;1.20;;
37559;SDS011;23398;50.928;7.084;2023-05-07T08:12:02;1.85;;;1.05;;
37559;SDS011;23398;50.928;7.084;2023-05-07T08:14:28;1.75;;;1.20;;
37559;SDS011;23398;50.928;7.084;2023-05-07T08:16:54;2.17;;;1.20;;
37559;SDS011;23398;50.928;7.084;2023-05-07T08:19:20;1.15;;;1.05;;
37559;SDS011;23398;50.928;7.084;2023-05-07T08:21:47;2.55;;;1.25;;
37559;SDS011;23398;50.928;7.084;2023-05-07T08:24:13;1.80;;;1.20;;
37559;SDS011;23398;50.928;7.084;2023-05-07T08:26:39;1.35;;;1.00;;
37559;SDS011;23398;50.928;7.084;2023-05-07T08:29:05;1.42;;;1.10;;
37559;SDS011;23398;50.928;7.084;2023-05-07T08:31:30;1.30;;;1.00;;
37559;SDS011;23398;50.928;7.084;2023-05-07T08:33:57;1.20;;;1.00;;
37559;SDS011;23398;50.928;7.084;2023-05-07T08:36:23;1.27;;;1.10;;
37559;SDS011;23398;50.928;7.084;2023-05-07T08:38:48;1.15;;;1.05;;
37559;SDS011;23398;50.928;7.084;2023-05-07T08:41:14;1.17;;;1.08;;
37559;SDS011;23398;50.928;7.084;2023-05-07T08:43:40;1.60;;;1.17;;
37559;SDS011;23398;50.928;7.084;2023-05-07T08:46:06;2.45;;;1.10;;
37559;SDS011;23398;50.928;7.084;2023-05-07T08:48:35;1.33;;;1.08;;
37559;SDS011;23398;50.928;7.084;2023-05-07T08:51:01;1.30;;;1.00;;
37559;SDS011;23398;50.928;7.084;2023-05-07T08:53:27;0.82;;;0.82;;
37559;SDS011;23398;50.928;7.084;2023-05-07T08:55:53;1.10;;;1.00;;
37559;SDS011;23398;50.928;7.084;2023-05-07T08:58:18;1.25;;;1.08;;
37559;SDS011;23398;50.928;7.084;2023-05-07T09:00:44;1.30;;;1.20;;
37559;SDS011;23398;50.928;7.084;2023-05-07T09:03:10;1.30;;;1.20;;
37559;SDS011;23398;50.928;7.084;2023-05-07T09:05:39;1.42;;;1.00;;
37559;SDS011;23398;50.928;7.084;2023-05-07T09:08:05;1.40;;;1.20;;
37559;SDS011;23398;50.928;7.084;2023-05-07T09:10:32;1.27;;;1.17;;
37559;SDS011;23398;50.928;7.084;2023-05-07T09:12:59;1.25;;;1.15;;
37559;SDS011;23398;50.928;7.084;2023-05-07T09:15:25;1.13;;;1.00;;
37559;SDS011;23398;50.928;7.084;2023-05-07T09:17:51;1.30;;;1.00;;
37559;SDS011;23398;50.928;7.084;2023-05-07T09:20:17;1.20;;;1.10;;
37559;SDS011;23398;50.928;7.084;2023-05-07T09:22:43;1.58;;;1.10;;
37559;SDS011;23398;50.928;7.084;2023-05-07T09:25:09;1.52;;;1.30;;
37559;SDS011;23398;50.928;7.084;2023-05-07T09:27:35;1.20;;;1.10;;
37559;SDS011;23398;50.928;7.084;2023-05-07T09:30:07;1.25;;;1.08;;
37559;SDS011;23398;50.928;7.084;2023-05-07T09:32:36;1.65;;;1.30;;
37559;SDS011;23398;50.928;7.084;2023-05-07T09:35:05;2.92;;;1.20;;
37559;SDS011;23398;50.928;7.084;2023-05-07T09:37:31;1.67;;;1.10;;
37559;SDS011;23398;50.928;7.084;2023-05-07T09:39:57;1.98;;;1.17;;
37559;SDS011;23398;50.928;7.084;2023-05-07T09:42:23;3.95;;;1.40;;
37559;SDS011;23398;50.928;7.084;2023-05-07T09:44:51;1.67;;;1.20;;
37559;SDS011;23398;50.928;7.084;2023-05-07T09:47:18;1.15;;;1.05;;
37559;SDS011;23398;50.928;7.084;2023-05-07T09:49:46;1.52;;;1.10;;
37559;SDS011;23398;50.928;7.084;2023-05-07T09:52:13;3.03;;;1.10;;
37559;SDS011;23398;50.928;7.084;2023-05-07T09:54:39;2.00;;;1.00;;
37559;SDS011;23398;50.928;7.084;2023-05-07T09:57:09;1.67;;;1.10;;
37559;SDS011;23398;50.928;7.084;2023-05-07T09:59:36;1.50;;;1.20;;
37559;SDS011;23398;50.928;7.084;2023-05-07T10:02:03;3.42;;;1.10;;
37559;SDS011;23398;50.928;7.084;2023-05-07T10:04:30;1.65;;;1.20;;
37559;SDS011;23398;50.928;7.084;2023-05-07T10:06:56;2.28;;;1.05;;
37559;SDS011;23398;50.928;7.084;2023-05-07T10:09:23;1.20;;;1.00;;
37559;SDS011;23398;50.928;7.084;2023-05-07T10:11:50;1.42;;;1.10;;
37559;SDS011;23398;50.928;7.084;2023-05-07T10:14:17;1.17;;;1.08;;
37559;SDS011;23398;50.928;7.084;2023-05-07T10:16:44;1.20;;;1.10;;
37559;SDS011;23398;50.928;7.084;2023-05-07T10:19:09;1.20;;;1.10;;
37559;SDS011;23398;50.928;7.084;2023-05-07T10:21:45;1.92;;;1.10;;
37559;SDS011;23398;50.928;7.084;2023-05-07T10:24:25;1.50;;;1.10;;
37559;SDS011;23398;50.928;7.084;2023-05-07T10:26:53;1.35;;;1.00;;
37559;SDS011;23398;50.928;7.084;2023-05-07T10:29:25;1.10;;;1.00;;
37559;SDS011;23398;50.928;7.084;2023-05-07T10:34:58;1.85;;;1.10;;
37559;SDS011;23398;50.928;7.084;2023-05-07T10:37:27;1.20;;;1.00;;
37559;SDS011;23398;50.928;7.084;2023-05-07T10:39:53;1.42;;;1.13;;
37559;SDS011;23398;50.928;7.084;2023-05-07T10:42:19;1.30;;;1.00;;
37559;SDS011;23398;50.928;7.084;2023-05-07T10:44:45;2.15;;;1.25;;
37559;SDS011;23398;50.928;7.084;2023-05-07T10:47:12;3.65;;;1.13;;
37559;SDS011;23398;50.928;7.084;2023-05-07T10:52:23;1.35;;;1.17;;
37559;SDS011;23398;50.928;7.084;2023-05-07T10:57:50;1.02;;;0.88;;
37559;SDS011;23398;50.928;7.084;2023-05-07T11:05:25;1.10;;;1.00;;
37559;SDS011;23398;50.928;7.084;2023-05-07T11:07:59;1.40;;;0.95;;
37559;SDS011;23398;50.928;7.084;2023-05-07T11:10:47;1.10;;;0.98;;
37559;SDS011;23398;50.928;7.084;2023-05-07T11:13:14;1.02;;;0.93;;
37559;SDS011;23398;50.928;7.084;2023-05-07T11:15:49;1.13;;;1.10;;
37559;SDS011;23398;50.928;7.084;2023-05-07T11:18:16;1.70;;;1.10;;
37559;SDS011;23398;50.928;7.084;2023-05-07T11:26:02;1.88;;;0.90;;
37559;SDS011;23398;50.928;7.084;2023-05-07T11:28:30;1.80;;;1.08;;
37559;SDS011;23398;50.928;7.084;2023-05-07T11:31:01;1.20;;;1.10;;
37559;SDS011;23398;50.928;7.084;2023-05-07T11:33:27;1.08;;;0.90;;
37559;SDS011;23398;50.928;7.084;2023-05-07T11:35:53;1.85;;;1.20;;
37559;SDS011;23398;50.928;7.084;2023-05-07T11:38:19;1.23;;;1.08;;
37559;SDS011;23398;50.928;7.084;2023-05-07T11:40:57;1.40;;;1.30;;
37559;SDS011;23398;50.928;7.084;2023-05-07T11:43:29;1.50;;;1.20;;
37559;SDS011;23398;50.928;7.084;2023-05-07T11:45:54;1.98;;;1.10;;
37559;SDS011;23398;50.928;7.084;2023-05-07T11:48:29;1.10;;;1.00;;
37559;SDS011;23398;50.928;7.084;2023-05-07T11:53:26;1.00;;;1.00;;
37559;SDS011;23398;50.928;7.084;2023-05-07T11:55:59;1.17;;;0.98;;
37559;SDS011;23398;50.928;7.084;2023-05-07T11:58:25;2.55;;;1.23;;
37559;SDS011;23398;50.928;7.084;2023-05-07T12:00:51;1.23;;;1.08;;
37559;SDS011;23398;50.928;7.084;2023-05-07T12:03:18;1.58;;;1.20;;
37559;SDS011;23398;50.928;7.084;2023-05-07T12:05:46;1.38;;;1.10;;
37559;SDS011;23398;50.928;7.084;2023-05-07T12:08:17;1.20;;;1.00;;
37559;SDS011;23398;50.928;7.084;2023-05-07T12:10:44;1.67;;;1.15;;
37559;SDS011;23398;50.928;7.084;2023-05-07T12:13:19;1.30;;;1.20;;
37559;SDS011;23398;50.928;7.084;2023-05-07T12:15:46;2.53;;;1.00;;
37559;SDS011;23398;50.928;7.084;2023-05-07T12:18:15;1.50;;;1.10;;
37559;SDS011;23398;50.928;7.084;2023-05-07T12:20:41;1.30;;;1.02;;
37559;SDS011;23398;50.928;7.084;2023-05-07T12:23:07;2.08;;;1.23;;
37559;SDS011;23398;50.928;7.084;2023-05-07T12:25:36;1.25;;;1.00;;
37559;SDS011;23398;50.928;7.084;2023-05-07T12:28:12;2.28;;;1.08;;
37559;SDS011;23398;50.928;7.084;2023-05-07T12:30:42;1.20;;;1.02;;
37559;SDS011;23398;50.928;7.084;2023-05-07T12:33:08;1.88;;;1.00;;
37559;SDS011;23398;50.928;7.084;2023-05-07T12:35:39;1.27;;;1.10;;
37559;SDS011;23398;50.928;7.084;2023-05-07T12:38:09;1.83;;;1.08;;
37559;SDS011;23398;50.928;7.084;2023-05-07T12:40:39;1.30;;;1.20;;
37559;SDS011;23398;50.928;7.084;2023-05-07T12:43:15;1.10;;;0.95;;
37559;SDS011;23398;50.928;7.084;2023-05-07T12:45:42;1.85;;;1.10;;
37559;SDS011;23398;50.928;7.084;2023-05-07T12:48:11;1.23;;;1.13;;
37559;SDS011;23398;50.928;7.084;2023-05-07T12:50:37;3.30;;;1.50;;
37559;SDS011;23398;50.928;7.084;2023-05-07T12:53:04;1.20;;;1.10;;
37559;SDS011;23398;50.928;7.084;2023-05-07T12:55:48;1.20;;;1.10;;
37559;SDS011;23398;50.928;7.084;2023-05-07T12:58:26;2.45;;;1.10;;
37559;SDS011;23398;50.928;7.084;2023-05-07T13:00:53;1.20;;;1.10;;
37559;SDS011;23398;50.928;7.084;2023-05-07T13:03:24;1.00;;;1.00;;
37559;SDS011;23398;50.928;7.084;2023-05-07T13:06:01;1.25;;;1.10;;
37559;SDS011;23398;50.928;7.084;2023-05-07T13:10:57;1.20;;;1.10;;
37559;SDS011;23398;50.928;7.084;2023-05-07T13:13:25;1.75;;;1.00;;
37559;SDS011;23398;50.928;7.084;2023-05-07T13:15:51;1.00;;;0.88;;
37559;SDS011;23398;50.928;7.084;2023-05-07T13:18:17;1.10;;;0.90;;
37559;SDS011;23398;50.928;7.084;2023-05-07T13:20:42;1.25;;;0.90;;
37559;SDS011;23398;50.928;7.084;2023-05-07T13:23:08;1.40;;;1.10;;
37559;SDS011;23398;50.928;7.084;2023-05-07T13:25:33;1.25;;;0.90;;
37559;SDS011;23398;50.928;7.084;2023-05-07T13:27:59;1.45;;;1.10;;
37559;SDS011;23398;50.928;7.084;2023-05-07T13:30:25;1.30;;;1.20;;
37559;SDS011;23398;50.928;7.084;2023-05-07T13:32:50;1.65;;;1.08;;
37559;SDS011;23398;50.928;7.084;2023-05-07T13:35:17;1.33;;;1.08;;
37559;SDS011;23398;50.928;7.084;2023-05-07T13:37:42;1.65;;;1.20;;
37559;SDS011;23398;50.928;7.084;2023-05-07T13:40:08;1.20;;;1.10;;
37559;SDS011;23398;50.928;7.084;2023-05-07T13:42:34;1.70;;;1.10;;
37559;SDS011;23398;50.928;7.084;2023-05-07T13:45:00;1.30;;;1.20;;
37559;SDS011;23398;50.928;7.084;2023-05-07T13:47:25;1.13;;;1.00;;
37559;SDS011;23398;50.928;7.084;2023-05-07T13:49:51;2.35;;;1.10;;
37559;SDS011;23398;50.928;7.084;2023-05-07T13:52:17;2.75;;;1.42;;
37559;SDS011;23398;50.928;7.084;2023-05-07T13:54:42;4.55;;;2.10;;
37559;SDS011;23398;50.928;7.084;2023-05-07T13:57:08;3.50;;;1.77;;
37559;SDS011;23398;50.928;7.084;2023-05-07T13:59:34;4.15;;;2.10;;
37559;SDS011;23398;50.928;7.084;2023-05-07T14:01:59;3.33;;;1.67;;
37559;SDS011;23398;50.928;7.084;2023-05-07T14:04:25;3.85;;;1.52;;
37559;SDS011;23398;50.928;7.084;2023-05-07T14:06:50;2.17;;;1.30;;
37559;SDS011;23398;50.928;7.084;2023-05-07T14:09:16;3.25;;;1.60;;
37559;SDS011;23398;50.928;7.084;2023-05-07T14:11:42;8.48;;;1.52;;
37559;SDS011;23398;50.928;7.084;2023-05-07T14:14:08;6.35;;;1.65;;
37559;SDS011;23398;50.928;7.084;2023-05-07T14:16:35;6.57;;;1.90;;
37559;SDS011;23398;50.928;7.084;2023-05-07T14:19:02;4.28;;;2.58;;
37559;SDS011;23398;50.928;7.084;2023-05-07T14:21:27;3.20;;;1.45;;
37559;SDS011;23398;50.928;7.084;2023-05-07T14:23:53;2.22;;;1.38;;
37559;SDS011;23398;50.928;7.084;2023-05-07T14:26:19;3.10;;;1.35;;
37559;SDS011;23398;50.928;7.084;2023-05-07T14:28:45;2.42;;;1.30;;
37559;SDS011;23398;50.928;7.084;2023-05-07T14:31:11;2.30;;;1.60;;
37559;SDS011;23398;50.928;7.084;2023-05-07T14:33:37;3.13;;;1.58;;
37559;SDS011;23398;50.928;7.084;2023-05-07T14:36:03;1.60;;;1.40;;
37559;SDS011;23398;50.928;7.084;2023-05-07T14:38:29;2.00;;;1.40;;
37559;SDS011;23398;50.928;7.084;2023-05-07T14:40:55;2.03;;;1.60;;
37559;SDS011;23398;50.928;7.084;2023-05-07T14:43:21;3.13;;;1.35;;
37559;SDS011;23398;50.928;7.084;2023-05-07T14:45:47;3.53;;;1.40;;
37559;SDS011;23398;50.928;7.084;2023-05-07T14:48:12;2.28;;;1.40;;
37559;SDS011;23398;50.928;7.084;2023-05-07T14:50:40;2.03;;;1.65;;
37559;SDS011;23398;50.928;7.084;2023-05-07T14:53:06;2.50;;;1.45;;
37559;SDS011;23398;50.928;7.084;2023-05-07T14:55:32;2.47;;;1.70;;
37559;SDS011;23398;50.928;7.084;2023-05-07T14:57:58;2.78;;;1.60;;
37559;SDS011;23398;50.928;7.084;2023-05-07T15:00:24;1.83;;;1.58;;
37559;SDS011;23398;50.928;7.084;2023-05-07T15:02:49;3.15;;;1.80;;
37559;SDS011;23398;50.928;7.084;2023-05-07T15:05:15;2.60;;;1.45;;
37559;SDS011;23398;50.928;7.084;2023-05-07T15:07:40;2.03;;;1.60;;